createdAt,value
2019-02-09T04:01:07.502Z,976.32
2019-02-09T04:02:08.036Z,976.38
2019-02-09T04:04:08.098Z,976.27
2019-02-09T04:05:08.536Z,976.37
2019-02-09T04:06:08.442Z,976.39
2019-02-09T04:07:08.615Z,976.38
2019-02-09T04:08:08.969Z,976.23
2019-02-09T04:09:06.888Z,976.25
2019-02-09T04:10:06.928Z,976.23
2019-02-09T04:11:06.988Z,976.21
2019-02-09T04:12:07.197Z,976.35
2019-02-09T04:13:07.360Z,976.26
2019-02-09T04:14:07.492Z,976.32
2019-02-09T04:15:07.610Z,976.36
2019-02-09T04:16:07.792Z,976.35
2019-02-09T04:17:07.918Z,976.43
2019-02-09T04:18:08.124Z,976.38
2019-02-09T04:19:08.253Z,976.32
2019-02-09T04:20:08.409Z,976.27
2019-02-09T04:21:08.563Z,976.29
2019-02-09T04:22:08.766Z,976.34
2019-02-09T04:23:08.879Z,976.32
2019-02-09T04:24:09.044Z,976.32
2019-02-09T04:25:09.267Z,976.32
2019-02-09T04:26:09.325Z,976.33
2019-02-09T04:27:09.549Z,976.35
2019-02-09T04:28:09.641Z,976.45
2019-02-09T04:29:09.887Z,976.24
2019-02-09T04:30:10.552Z,976.27
2019-02-09T04:31:10.277Z,976.15
2019-02-09T04:32:10.381Z,976.23
2019-02-09T04:33:10.540Z,976.08
2019-02-09T04:34:10.721Z,975.99
2019-02-09T04:35:10.841Z,976.11
2019-02-09T04:36:11.047Z,976.00
2019-02-09T04:37:11.215Z,976.02
2019-02-09T04:38:11.311Z,975.91
2019-02-09T04:39:11.436Z,976.16
2019-02-09T04:40:11.673Z,976.25
2019-02-09T04:41:11.913Z,976.07
2019-02-09T04:42:12.038Z,976.12
2019-02-09T04:43:12.177Z,976.09
2019-02-09T04:44:12.354Z,975.98
2019-02-09T04:45:12.523Z,975.98
2019-02-09T04:46:12.618Z,976.08
2019-02-09T04:47:19.402Z,976.10
2019-02-09T04:48:12.949Z,976.12
2019-02-09T04:49:13.036Z,976.10
2019-02-09T04:50:13.221Z,976.08
2019-02-09T04:51:13.343Z,976.06
2019-02-09T04:52:13.570Z,976.10
2019-02-09T04:53:13.735Z,976.12
2019-02-09T04:54:13.811Z,976.12
2019-02-09T04:55:14.091Z,976.23
2019-02-09T04:56:14.175Z,976.18
2019-02-09T04:57:14.302Z,976.09
2019-02-09T04:58:14.478Z,976.12
2019-02-09T04:59:14.648Z,976.19
2019-02-09T05:00:14.876Z,976.19
2019-02-09T05:01:14.965Z,976.26
2019-02-09T05:02:15.185Z,976.19
2019-02-09T05:03:15.335Z,976.16
2019-02-09T05:04:15.491Z,976.28
2019-02-09T05:05:15.673Z,976.36
2019-02-09T05:06:15.765Z,976.34
2019-02-09T05:07:15.943Z,976.31
2019-02-09T05:08:16.134Z,976.37
2019-02-09T05:09:16.295Z,976.43
2019-02-09T05:10:16.458Z,976.48
2019-02-09T05:11:16.591Z,976.54
2019-02-09T05:12:16.762Z,976.61
2019-02-09T05:13:16.884Z,976.63
2019-02-09T05:14:17.046Z,976.63
2019-02-09T05:15:17.247Z,976.67
2019-02-09T05:16:17.462Z,976.78
2019-02-09T05:17:17.558Z,976.83
2019-02-09T05:18:17.757Z,976.86
2019-02-09T05:19:17.858Z,976.86
2019-02-09T05:20:18.068Z,976.88
2019-02-09T05:21:18.166Z,976.94
2019-02-09T05:22:18.366Z,976.84
2019-02-09T05:23:18.492Z,976.86
2019-02-09T05:24:18.685Z,976.89
2019-02-09T05:25:18.786Z,976.91
2019-02-09T05:26:18.995Z,976.89
2019-02-09T05:27:19.201Z,976.85
2019-02-09T05:28:19.290Z,976.84
2019-02-09T05:29:19.554Z,976.89
2019-02-09T05:30:19.635Z,976.97
2019-02-09T05:31:23.116Z,977.01
2019-02-09T05:32:19.951Z,976.96
2019-02-09T05:33:20.076Z,976.99
2019-02-09T05:34:20.264Z,976.93
2019-02-09T05:35:20.484Z,976.90
2019-02-09T05:36:20.614Z,976.80
2019-02-09T05:37:20.784Z,976.76
2019-02-09T05:38:20.919Z,976.69
2019-02-09T05:39:21.134Z,976.69
2019-02-09T05:40:21.226Z,976.50
2019-02-09T05:41:21.403Z,976.56
2019-02-09T05:42:21.504Z,976.37
2019-02-09T05:43:21.700Z,976.51
2019-02-09T05:44:21.889Z,976.60
2019-02-09T05:45:21.998Z,976.70
2019-02-09T05:46:22.137Z,976.79
2019-02-09T05:47:22.344Z,976.68
2019-02-09T05:48:22.511Z,976.76
2019-02-09T05:49:22.626Z,976.85
2019-02-09T05:50:22.806Z,976.82
2019-02-09T05:51:22.954Z,976.88
2019-02-09T05:52:23.111Z,976.86
2019-02-09T05:53:23.279Z,976.92
2019-02-09T05:54:23.414Z,976.91
2019-02-09T05:55:23.569Z,976.92
2019-02-09T05:56:23.748Z,976.92
2019-02-09T05:57:23.871Z,976.92
2019-02-09T05:58:24.007Z,976.92
2019-02-09T05:59:24.240Z,977.06
2019-02-09T06:00:24.348Z,977.01
2019-02-09T06:01:31.805Z,977.07
2019-02-09T06:02:24.671Z,977.10
2019-02-09T06:03:24.827Z,977.11
2019-02-09T06:04:25.000Z,977.15
2019-02-09T06:05:25.103Z,977.16
2019-02-09T06:06:25.309Z,977.16
2019-02-09T06:07:25.424Z,977.18
2019-02-09T06:08:25.659Z,977.16
2019-02-09T06:09:25.795Z,977.13
2019-02-09T06:10:25.890Z,977.19
2019-02-09T06:11:26.111Z,977.17
2019-02-09T06:12:26.211Z,977.20
2019-02-09T06:13:26.377Z,977.25
2019-02-09T06:14:27.396Z,977.26
2019-02-09T06:15:26.794Z,977.25
2019-02-09T06:16:26.949Z,977.30
2019-02-09T06:17:27.914Z,977.24
2019-02-09T06:18:27.365Z,977.30
2019-02-09T06:19:27.406Z,977.32
2019-02-09T06:20:27.597Z,977.31
2019-02-09T06:21:27.706Z,977.36
2019-02-09T06:22:27.936Z,977.45
2019-02-09T06:23:28.108Z,977.28
2019-02-09T06:24:28.260Z,977.35
2019-02-09T06:25:28.494Z,977.45
2019-02-09T06:26:28.603Z,977.43
2019-02-09T06:27:28.726Z,977.49
2019-02-09T06:28:28.904Z,977.52
2019-02-09T06:29:29.064Z,977.49
2019-02-09T06:30:29.190Z,977.58
2019-02-09T06:31:29.392Z,977.56
2019-02-09T06:32:29.577Z,977.54
2019-02-09T06:33:29.709Z,977.52
2019-02-09T06:34:29.863Z,977.50
2019-02-09T06:35:30.005Z,977.53
2019-02-09T06:36:30.131Z,977.52
2019-02-09T06:37:30.309Z,977.45
2019-02-09T06:38:30.491Z,977.50
2019-02-09T06:39:30.651Z,977.54
2019-02-09T06:40:30.815Z,977.56
2019-02-09T06:41:30.943Z,977.60
2019-02-09T06:42:31.203Z,977.56
2019-02-09T06:43:31.313Z,977.60
2019-02-09T06:44:31.506Z,977.56
2019-02-09T06:45:31.642Z,977.57
2019-02-09T06:46:31.738Z,977.58
2019-02-09T06:47:32.000Z,977.65
2019-02-09T06:48:32.161Z,977.65
2019-02-09T06:49:32.333Z,977.68
2019-02-09T06:50:32.382Z,977.62
2019-02-09T06:51:32.542Z,977.68
2019-02-09T06:52:32.742Z,977.67
2019-02-09T06:53:32.905Z,977.70
2019-02-09T06:54:33.027Z,977.76
2019-02-09T06:55:33.268Z,977.72
2019-02-09T06:56:33.365Z,977.75
2019-02-09T06:57:33.535Z,977.79
2019-02-09T06:58:33.687Z,977.88
2019-02-09T06:59:33.818Z,977.84
2019-02-09T07:00:33.983Z,977.86
2019-02-09T07:01:34.133Z,977.89
2019-02-09T07:02:34.422Z,977.90
2019-02-09T07:03:34.602Z,977.96
2019-02-09T07:04:34.747Z,978.00
2019-02-09T07:05:34.789Z,977.91
2019-02-09T07:06:34.922Z,977.96
2019-02-09T07:07:35.072Z,977.98
2019-02-09T07:08:35.250Z,978.02
2019-02-09T07:09:35.348Z,978.00
2019-02-09T07:10:35.523Z,978.08
2019-02-09T07:11:35.780Z,978.08
2019-02-09T07:12:35.915Z,978.06
2019-02-09T07:13:36.042Z,978.10
2019-02-09T07:14:36.210Z,978.13
2019-02-09T07:15:36.343Z,978.26
2019-02-09T07:16:36.498Z,978.15
2019-02-09T07:17:36.655Z,978.14
2019-02-09T07:18:36.857Z,978.16
2019-02-09T07:19:36.967Z,978.19
2019-02-09T07:20:37.099Z,978.19
2019-02-09T07:21:37.349Z,978.28
2019-02-09T07:22:37.445Z,978.17
2019-02-09T07:23:37.616Z,978.17
2019-02-09T07:24:38.270Z,978.24
2019-02-09T07:25:37.994Z,978.20
2019-02-09T07:26:38.646Z,978.33
2019-02-09T07:27:38.400Z,978.31
2019-02-09T07:28:38.524Z,978.41
2019-02-09T07:29:38.936Z,978.33
2019-02-09T07:30:38.874Z,978.29
2019-02-09T07:31:39.103Z,978.25
2019-02-09T07:32:39.199Z,978.35
2019-02-09T07:33:39.364Z,978.46
2019-02-09T07:34:39.467Z,978.40
2019-02-09T07:35:39.661Z,978.43
2019-02-09T07:36:39.812Z,978.40
2019-02-09T07:37:40.013Z,978.43
2019-02-09T07:38:40.081Z,978.39
2019-02-09T07:39:40.229Z,978.50
2019-02-09T07:40:40.500Z,978.48
2019-02-09T07:41:40.617Z,978.46
2019-02-09T07:42:40.729Z,978.56
2019-02-09T07:43:40.937Z,978.61
2019-02-09T07:44:40.985Z,978.55
2019-02-09T07:45:41.227Z,978.66
2019-02-09T07:46:41.482Z,978.64
2019-02-09T07:47:41.503Z,978.63
2019-02-09T07:48:41.687Z,978.60
2019-02-09T07:49:41.907Z,978.57
2019-02-09T07:50:42.119Z,978.59
2019-02-09T07:51:42.236Z,978.64
2019-02-09T07:52:42.478Z,978.61
2019-02-09T07:53:42.590Z,978.70
2019-02-09T07:54:42.736Z,978.60
2019-02-09T07:55:42.910Z,978.70
2019-02-09T07:56:43.073Z,978.69
2019-02-09T07:57:43.216Z,978.68
2019-02-09T07:58:43.360Z,978.69
2019-02-09T07:59:43.511Z,978.68
2019-02-09T08:00:43.679Z,978.72
2019-02-09T08:01:43.828Z,978.69
2019-02-09T08:02:43.925Z,978.79
2019-02-09T08:03:44.151Z,978.80
2019-02-09T08:04:44.324Z,978.67
2019-02-09T08:05:44.465Z,978.70
2019-02-09T08:06:44.658Z,978.67
2019-02-09T08:07:44.726Z,978.71
2019-02-09T08:08:44.979Z,978.82
2019-02-09T08:09:45.090Z,978.80
2019-02-09T08:10:45.225Z,978.80
2019-02-09T08:11:45.409Z,978.80
2019-02-09T08:12:45.554Z,978.81
2019-02-09T08:13:45.716Z,978.82
2019-02-09T08:14:45.876Z,978.88
2019-02-09T08:15:46.000Z,978.88
2019-02-09T08:16:46.202Z,978.90
2019-02-09T08:17:46.352Z,978.89
2019-02-09T08:18:46.513Z,978.94
2019-02-09T08:19:46.723Z,978.96
2019-02-09T08:20:46.890Z,978.93
2019-02-09T08:21:47.043Z,978.95
2019-02-09T08:22:47.206Z,979.00
2019-02-09T08:23:47.326Z,978.95
2019-02-09T08:24:47.486Z,979.03
2019-02-09T08:25:47.663Z,979.02
2019-02-09T08:26:47.790Z,978.96
2019-02-09T08:27:47.938Z,979.01
2019-02-09T08:28:48.133Z,978.98
2019-02-09T08:29:48.254Z,979.04
2019-02-09T08:30:48.443Z,979.11
2019-02-09T08:31:48.643Z,979.08
2019-02-09T08:32:48.789Z,979.09
2019-02-09T08:33:48.960Z,979.03
2019-02-09T08:34:49.099Z,979.29
2019-02-09T08:35:49.239Z,979.15
2019-02-09T08:36:49.398Z,979.20
2019-02-09T08:37:49.572Z,979.19
2019-02-09T08:38:49.781Z,979.20
2019-02-09T08:39:49.861Z,979.17
2019-02-09T08:40:50.010Z,979.19
2019-02-09T08:41:50.258Z,979.13
2019-02-09T08:42:50.428Z,979.18
2019-02-09T08:43:50.555Z,979.20
2019-02-09T08:44:50.683Z,979.21
2019-02-09T08:45:50.876Z,979.21
2019-02-09T08:46:51.003Z,979.15
2019-02-09T08:47:51.177Z,979.16
2019-02-09T08:48:51.331Z,979.21
2019-02-09T08:49:51.519Z,979.21
2019-02-09T08:50:51.671Z,979.14
2019-02-09T08:51:51.832Z,979.22
2019-02-09T08:52:51.975Z,979.17
2019-02-09T08:53:52.097Z,979.21
2019-02-09T08:54:52.287Z,979.30
2019-02-09T08:55:52.462Z,979.44
2019-02-09T08:56:52.675Z,979.23
2019-02-09T08:57:52.814Z,979.33
2019-02-09T08:58:52.972Z,979.28
2019-02-09T08:59:53.130Z,979.33
2019-02-09T09:00:53.302Z,979.44
2019-02-09T09:01:53.405Z,979.27
2019-02-09T09:02:53.604Z,979.36
2019-02-09T09:03:53.708Z,979.44
2019-02-09T09:04:53.896Z,979.37
2019-02-09T09:05:54.117Z,979.59
2019-02-09T09:06:54.292Z,979.39
2019-02-09T09:07:54.375Z,979.47
2019-02-09T09:08:54.555Z,979.47
2019-02-09T09:09:54.745Z,979.42
2019-02-09T09:10:54.909Z,979.61
2019-02-09T09:11:55.068Z,979.49
2019-02-09T09:12:55.191Z,979.42
2019-02-09T09:13:55.412Z,979.43
2019-02-09T09:14:55.514Z,979.39
2019-02-09T09:15:55.735Z,979.56
2019-02-09T09:16:55.868Z,979.45
2019-02-09T09:17:56.084Z,979.57
2019-02-09T09:18:56.254Z,979.56
2019-02-09T09:19:56.348Z,979.58
2019-02-09T09:20:56.507Z,979.46
2019-02-09T09:21:56.675Z,979.49
2019-02-09T09:22:56.787Z,979.47
2019-02-09T09:23:56.973Z,979.58
2019-02-09T09:24:57.091Z,979.92
2019-02-09T09:25:57.261Z,979.92
2019-02-09T09:26:57.470Z,979.77
2019-02-09T09:27:57.582Z,979.58
2019-02-09T09:28:57.809Z,979.68
2019-02-09T09:29:57.915Z,979.98
2019-02-09T09:30:58.125Z,979.98
2019-02-09T09:31:58.223Z,980.09
2019-02-09T09:32:58.418Z,980.17
2019-02-09T09:33:58.503Z,980.08
2019-02-09T09:34:58.727Z,980.08
2019-02-09T09:35:58.862Z,980.18
2019-02-09T09:36:59.079Z,980.08
2019-02-09T09:37:59.244Z,980.16
2019-02-09T09:38:59.328Z,980.11
2019-02-09T09:39:59.528Z,980.12
2019-02-09T09:40:59.683Z,980.18
2019-02-09T09:41:59.925Z,980.37
2019-02-09T09:43:00.074Z,980.10
2019-02-09T09:44:00.197Z,980.14
2019-02-09T09:45:00.401Z,980.09
2019-02-09T09:46:00.528Z,980.41
2019-02-09T09:47:00.664Z,980.05
2019-02-09T09:48:00.902Z,980.47
2019-02-09T09:49:01.111Z,980.44
2019-02-09T09:50:01.151Z,980.56
2019-02-09T09:51:01.363Z,980.49
2019-02-09T09:52:01.529Z,979.98
2019-02-09T09:53:02.555Z,979.99
2019-02-09T09:54:01.882Z,980.13
2019-02-09T09:55:02.011Z,980.26
2019-02-09T09:56:02.210Z,981.37
2019-02-09T09:57:02.355Z,981.05
2019-02-09T09:58:02.491Z,981.14
2019-02-09T09:59:02.678Z,980.29
2019-02-09T10:00:02.887Z,980.85
2019-02-09T10:01:03.046Z,980.09
2019-02-09T10:02:03.206Z,980.17
2019-02-09T10:03:03.927Z,980.13
2019-02-09T10:04:03.492Z,980.07
2019-02-09T10:05:03.602Z,980.05
2019-02-09T10:06:03.829Z,980.24
2019-02-09T10:07:03.981Z,980.19
2019-02-09T10:08:04.122Z,980.30
2019-02-09T10:09:04.330Z,980.25
2019-02-09T10:10:04.430Z,980.13
2019-02-09T10:11:08.317Z,980.36
2019-02-09T10:12:04.789Z,980.22
2019-02-09T10:13:04.982Z,980.21
2019-02-09T10:14:08.974Z,980.16
2019-02-09T10:15:05.294Z,980.24
2019-02-09T10:16:05.512Z,980.11
2019-02-09T10:17:05.672Z,980.31
2019-02-09T10:18:05.813Z,980.10
2019-02-09T10:19:05.970Z,980.19
2019-02-09T10:20:06.149Z,980.19
2019-02-09T10:21:06.243Z,980.20
2019-02-09T10:22:06.460Z,980.14
2019-02-09T10:23:06.687Z,980.23
2019-02-09T10:24:06.779Z,980.37
2019-02-09T10:25:06.957Z,980.36
2019-02-09T10:26:07.139Z,980.67
2019-02-09T10:27:07.259Z,980.53
2019-02-09T10:28:07.405Z,980.41
2019-02-09T10:29:07.562Z,980.55
2019-02-09T10:30:07.804Z,980.85
2019-02-09T10:31:07.902Z,981.89
2019-02-09T10:32:08.063Z,980.81
2019-02-09T10:33:08.278Z,980.68
2019-02-09T10:34:08.414Z,980.42
2019-02-09T10:35:08.586Z,980.33
2019-02-09T10:36:08.713Z,980.41
2019-02-09T10:37:08.924Z,980.24
2019-02-09T10:38:09.032Z,980.98
2019-02-09T10:39:09.229Z,980.42
2019-02-09T10:40:09.382Z,982.13
2019-02-09T10:41:09.475Z,982.29
2019-02-09T10:42:09.710Z,981.96
2019-02-09T10:43:09.905Z,981.05
2019-02-09T10:44:09.996Z,980.90
2019-02-09T10:45:10.190Z,980.94
2019-02-09T10:46:10.338Z,980.53
2019-02-09T10:47:10.541Z,980.80
2019-02-09T10:48:10.636Z,981.28
2019-02-09T10:49:10.814Z,980.57
2019-02-09T10:50:11.009Z,980.83
2019-02-09T10:51:11.162Z,980.85
2019-02-09T10:52:11.300Z,981.98
2019-02-09T10:53:12.451Z,980.70
2019-02-09T10:54:11.617Z,981.01
2019-02-09T10:55:11.746Z,980.70
2019-02-09T10:56:11.978Z,980.80
2019-02-09T10:57:12.057Z,980.65
2019-02-09T10:58:12.248Z,980.63
2019-02-09T10:59:12.348Z,980.62
2019-02-09T11:00:12.648Z,980.57
2019-02-09T11:01:12.763Z,980.55
2019-02-09T11:02:12.866Z,980.53
2019-02-09T11:03:13.081Z,980.66
2019-02-09T11:04:13.237Z,980.41
2019-02-09T11:05:13.365Z,981.34
2019-02-09T11:06:13.591Z,981.31
2019-02-09T11:07:13.788Z,980.88
2019-02-09T11:08:13.946Z,981.84
2019-02-09T11:09:14.033Z,980.86
2019-02-09T11:10:14.223Z,980.95
2019-02-09T11:11:14.457Z,981.40
2019-02-09T11:12:14.671Z,981.12
2019-02-09T11:13:14.888Z,981.56
2019-02-09T11:14:15.004Z,981.32
2019-02-09T11:15:15.197Z,981.53
2019-02-09T11:16:15.305Z,981.58
2019-02-09T11:17:15.507Z,981.60
2019-02-09T11:18:15.976Z,981.69
2019-02-09T11:19:15.878Z,981.60
2019-02-09T11:20:15.996Z,981.09
2019-02-09T11:21:16.182Z,981.64
2019-02-09T11:22:16.344Z,981.54
2019-02-09T11:23:16.524Z,981.63
2019-02-09T11:24:16.671Z,981.59
2019-02-09T11:25:16.867Z,981.66
2019-02-09T11:26:17.062Z,980.59
2019-02-09T11:27:17.191Z,980.73
2019-02-09T11:28:17.394Z,981.32
2019-02-09T11:29:17.505Z,980.64
2019-02-09T11:30:17.936Z,981.02
2019-02-09T11:31:17.879Z,980.67
2019-02-09T11:32:18.016Z,980.68
2019-02-09T11:33:18.159Z,980.65
2019-02-09T11:34:18.362Z,980.70
2019-02-09T11:35:18.541Z,980.55
2019-02-09T11:36:18.646Z,980.66
2019-02-09T11:37:18.865Z,980.88
2019-02-09T11:38:19.035Z,980.62
2019-02-09T11:39:19.167Z,980.53
2019-02-09T11:40:19.304Z,980.53
2019-02-09T11:41:20.034Z,980.58
2019-02-09T11:42:19.720Z,980.95
2019-02-09T11:43:20.075Z,980.80
2019-02-09T11:44:20.034Z,980.76
2019-02-09T11:45:20.233Z,980.65
2019-02-09T11:46:20.361Z,980.86
2019-02-09T11:47:20.551Z,981.11
2019-02-09T11:48:20.761Z,980.94
2019-02-09T11:49:20.900Z,980.68
2019-02-09T11:50:21.085Z,980.66
2019-02-09T11:51:21.248Z,980.76
2019-02-09T11:52:22.287Z,980.80
2019-02-09T11:53:21.578Z,980.55
2019-02-09T11:54:22.291Z,980.64
2019-02-09T11:55:21.923Z,980.60
2019-02-09T11:56:22.048Z,980.55
2019-02-09T11:57:22.248Z,980.60
2019-02-09T11:58:22.373Z,980.47
2019-02-09T11:59:22.512Z,980.51
2019-02-09T12:00:22.692Z,980.54
2019-02-09T12:01:22.939Z,980.44
2019-02-09T12:02:23.142Z,980.39
2019-02-09T12:03:23.263Z,980.37
2019-02-09T12:04:23.417Z,980.38
2019-02-09T12:05:23.589Z,980.45
2019-02-09T12:06:23.785Z,980.23
2019-02-09T12:07:24.066Z,980.40
2019-02-09T12:08:24.075Z,980.45
2019-02-09T12:09:24.324Z,980.49
2019-02-09T12:10:24.427Z,980.47
2019-02-09T12:11:24.558Z,980.47
2019-02-09T12:12:24.731Z,980.60
2019-02-09T12:13:24.896Z,980.58
2019-02-09T12:14:25.088Z,980.57
2019-02-09T12:15:25.184Z,980.53
2019-02-09T12:16:25.418Z,980.54
2019-02-09T12:17:25.571Z,980.70
2019-02-09T12:18:25.743Z,980.61
2019-02-09T12:19:25.942Z,980.56
2019-02-09T12:20:26.100Z,980.41
2019-02-09T12:21:26.237Z,980.45
2019-02-09T12:22:26.357Z,980.48
2019-02-09T12:23:26.499Z,980.53
2019-02-09T12:24:26.739Z,980.45
2019-02-09T12:25:26.848Z,980.66
2019-02-09T12:26:27.020Z,980.42
2019-02-09T12:27:27.182Z,980.44
2019-02-09T12:28:27.302Z,980.38
2019-02-09T12:29:34.461Z,980.46
2019-02-09T12:30:28.460Z,980.58
2019-02-09T12:31:27.773Z,980.80
2019-02-09T12:32:27.865Z,980.66
2019-02-09T12:33:28.032Z,980.86
2019-02-09T12:34:28.261Z,980.45
2019-02-09T12:35:28.366Z,980.65
2019-02-09T12:36:28.591Z,980.65
2019-02-09T12:37:30.424Z,980.48
2019-02-09T12:38:28.969Z,980.45
2019-02-09T12:39:29.025Z,980.54
2019-02-09T12:40:29.154Z,980.47
2019-02-09T12:41:29.398Z,980.47
2019-02-09T12:42:29.486Z,980.58
2019-02-09T12:43:29.717Z,980.55
2019-02-09T12:44:29.813Z,980.69
2019-02-09T12:45:30.000Z,980.76
2019-02-09T12:46:30.209Z,980.66
2019-02-09T12:47:30.325Z,980.56
2019-02-09T12:48:30.479Z,980.55
2019-02-09T12:49:30.715Z,980.44
2019-02-09T12:50:30.917Z,980.53
2019-02-09T12:51:30.985Z,980.44
2019-02-09T12:52:31.145Z,980.49
2019-02-09T12:53:31.260Z,980.29
2019-02-09T12:54:31.546Z,980.40
2019-02-09T12:55:31.665Z,980.35
2019-02-09T12:56:31.886Z,980.37
2019-02-09T12:57:32.034Z,980.31
2019-02-09T12:58:32.155Z,980.47
2019-02-09T12:59:32.308Z,980.47
2019-02-09T13:00:32.521Z,980.48
2019-02-09T13:01:33.508Z,980.59
2019-02-09T13:02:32.777Z,980.59
2019-02-09T13:03:32.901Z,980.61
2019-02-09T13:04:35.075Z,980.63
2019-02-09T13:05:33.323Z,980.60
2019-02-09T13:06:33.516Z,980.47
2019-02-09T13:07:33.657Z,980.49
2019-02-09T13:08:33.777Z,980.46
2019-02-09T13:09:33.922Z,980.58
2019-02-09T13:10:34.147Z,980.58
2019-02-09T13:11:34.312Z,980.53
2019-02-09T13:12:34.473Z,980.47
2019-02-09T13:13:34.603Z,980.53
2019-02-09T13:14:34.861Z,980.49
2019-02-09T13:15:35.010Z,980.41
2019-02-09T13:16:35.087Z,980.38
2019-02-09T13:17:35.263Z,980.33
2019-02-09T13:18:35.344Z,980.56
2019-02-09T13:19:35.787Z,980.43
2019-02-09T13:20:35.787Z,980.38
2019-02-09T13:21:35.884Z,980.38
2019-02-09T13:22:36.300Z,980.41
2019-02-09T13:23:36.343Z,980.51
2019-02-09T13:24:36.414Z,980.49
2019-02-09T13:25:36.701Z,980.43
2019-02-09T13:26:36.940Z,980.61
2019-02-09T13:27:37.066Z,980.41
2019-02-09T13:28:37.137Z,980.35
2019-02-09T13:29:37.565Z,980.45
2019-02-09T13:30:37.555Z,980.42
2019-02-09T13:31:37.827Z,980.40
2019-02-09T13:32:37.999Z,980.39
2019-02-09T13:33:39.143Z,980.34
2019-02-09T13:34:38.169Z,980.32
2019-02-09T13:35:38.395Z,980.28
2019-02-09T13:36:38.558Z,980.35
2019-02-09T13:37:38.775Z,980.32
2019-02-09T13:38:38.931Z,980.29
2019-02-09T13:39:39.148Z,980.17
2019-02-09T13:40:39.577Z,980.10
2019-02-09T13:41:39.539Z,980.18
2019-02-09T13:42:39.704Z,980.21
2019-02-09T13:43:39.815Z,980.20
2019-02-09T13:44:39.931Z,980.25
2019-02-09T13:45:40.139Z,980.06
2019-02-09T13:46:40.522Z,980.05
2019-02-09T13:47:40.620Z,980.03
2019-02-09T13:48:40.731Z,980.07
2019-02-09T13:49:40.880Z,980.08
2019-02-09T13:50:41.153Z,980.03
2019-02-09T13:51:41.203Z,980.09
2019-02-09T13:52:41.810Z,980.28
2019-02-09T13:53:41.724Z,980.06
2019-02-09T13:54:41.775Z,980.21
2019-02-09T13:55:41.980Z,980.33
2019-02-09T13:56:42.040Z,980.15
2019-02-09T13:57:42.153Z,980.19
2019-02-09T13:58:42.324Z,980.26
2019-02-09T13:59:42.580Z,980.31
2019-02-09T14:00:42.704Z,980.32
2019-02-09T14:01:42.873Z,980.27
2019-02-09T14:02:43.415Z,980.04
2019-02-09T14:03:46.976Z,980.23
2019-02-09T14:04:44.483Z,980.28
2019-02-09T14:05:43.851Z,980.01
2019-02-09T14:06:43.887Z,980.14
2019-02-09T14:07:43.960Z,980.09
2019-02-09T14:08:44.333Z,980.18
2019-02-09T14:09:44.642Z,980.10
2019-02-09T14:10:44.368Z,980.22
2019-02-09T14:11:44.795Z,980.24
2019-02-09T14:12:44.619Z,980.23
2019-02-09T14:13:44.852Z,980.20
2019-02-09T14:14:45.108Z,980.34
2019-02-09T14:15:45.335Z,980.25
2019-02-09T14:16:45.340Z,980.28
2019-02-09T14:17:45.479Z,980.34
2019-02-09T14:18:45.630Z,980.35
2019-02-09T14:19:46.681Z,980.28
2019-02-09T14:20:45.979Z,980.31
2019-02-09T14:21:46.269Z,980.26
2019-02-09T14:22:46.395Z,980.31
2019-02-09T14:23:46.501Z,980.37
2019-02-09T14:24:46.599Z,980.28
2019-02-09T14:25:46.873Z,980.36
2019-02-09T14:26:47.009Z,980.36
2019-02-09T14:27:47.162Z,980.32
2019-02-09T14:28:47.334Z,980.37
2019-02-09T14:29:47.504Z,980.40
2019-02-09T14:30:47.779Z,980.39
2019-02-09T14:31:47.783Z,980.52
2019-02-09T14:32:48.010Z,980.44
2019-02-09T14:33:54.816Z,980.40
2019-02-09T14:34:48.271Z,980.46
2019-02-09T14:35:48.492Z,980.33
2019-02-09T14:36:48.627Z,980.33
2019-02-09T14:37:48.829Z,980.39
2019-02-09T14:38:48.941Z,980.34
2019-02-09T14:39:49.076Z,980.28
2019-02-09T14:40:49.290Z,980.36
2019-02-09T14:41:49.382Z,980.37
2019-02-09T14:42:49.598Z,980.28
2019-02-09T14:43:49.685Z,980.34
2019-02-09T14:44:49.896Z,980.47
2019-02-09T14:45:50.024Z,980.34
2019-02-09T14:46:50.256Z,980.34
2019-02-09T14:47:50.362Z,980.43
2019-02-09T14:48:50.549Z,980.32
2019-02-09T14:49:50.739Z,980.35
2019-02-09T14:50:50.884Z,980.40
2019-02-09T14:51:51.063Z,980.47
2019-02-09T14:52:51.241Z,980.50
2019-02-09T14:53:51.346Z,980.42
2019-02-09T14:54:51.565Z,980.42
2019-02-09T14:55:51.747Z,980.57
2019-02-09T14:56:51.887Z,980.47
2019-02-09T14:57:52.070Z,980.53
2019-02-09T14:58:52.241Z,980.50
2019-02-09T14:59:52.320Z,980.44
2019-02-09T15:00:52.575Z,980.45
2019-02-09T15:01:52.717Z,980.57
2019-02-09T15:02:54.064Z,980.53
2019-02-09T15:03:53.026Z,980.52
2019-02-09T15:04:53.124Z,980.52
2019-02-09T15:05:53.332Z,980.65
2019-02-09T15:06:53.620Z,980.51
2019-02-09T15:07:53.661Z,980.50
2019-02-09T15:08:53.880Z,980.57
2019-02-09T15:09:54.027Z,980.66
2019-02-09T15:10:54.137Z,980.50
2019-02-09T15:11:54.325Z,980.50
2019-02-09T15:12:54.449Z,980.51
2019-02-09T15:13:54.629Z,980.51
2019-02-09T15:14:54.815Z,980.41
2019-02-09T15:15:54.931Z,980.46
2019-02-09T15:16:55.110Z,980.47
2019-02-09T15:17:55.273Z,980.44
2019-02-09T15:18:55.414Z,980.49
2019-02-09T15:19:55.574Z,980.44
2019-02-09T15:20:55.719Z,980.48
2019-02-09T15:21:55.892Z,980.49
2019-02-09T15:22:56.031Z,980.43
2019-02-09T15:23:56.206Z,980.42
2019-02-09T15:24:56.351Z,980.43
2019-02-09T15:25:56.544Z,980.50
2019-02-09T15:26:56.691Z,980.57
2019-02-09T15:27:56.846Z,980.45
2019-02-09T15:28:57.011Z,980.53
2019-02-09T15:29:57.178Z,980.51
2019-02-09T15:30:57.952Z,980.46
2019-02-09T15:31:57.453Z,980.55
2019-02-09T15:32:57.603Z,980.58
2019-02-09T15:33:57.775Z,980.62
2019-02-09T15:34:57.938Z,980.54
2019-02-09T15:35:58.747Z,980.57
2019-02-09T15:36:58.265Z,980.58
2019-02-09T15:37:58.407Z,980.61
2019-02-09T15:38:58.639Z,980.53
2019-02-09T15:39:58.783Z,980.69
2019-02-09T15:40:58.913Z,980.69
2019-02-09T15:41:59.096Z,980.60
2019-02-09T15:42:59.300Z,980.54
2019-02-09T15:43:59.380Z,980.63
2019-02-09T15:44:59.567Z,980.55
2019-02-09T15:45:59.713Z,980.65
2019-02-09T15:46:59.895Z,980.69
2019-02-09T15:48:00.025Z,980.76
2019-02-09T15:49:00.201Z,980.68
2019-02-09T15:50:00.396Z,980.70
2019-02-09T15:51:00.508Z,980.72
2019-02-09T15:52:00.865Z,980.66
2019-02-09T15:53:00.951Z,980.76
2019-02-09T15:54:01.029Z,980.74
2019-02-09T15:55:01.250Z,980.66
2019-02-09T15:56:01.407Z,980.79
2019-02-09T15:57:01.569Z,980.79
2019-02-09T15:58:01.688Z,980.71
2019-02-09T15:59:01.845Z,980.82
2019-02-09T16:00:02.029Z,980.89
2019-02-09T16:01:02.211Z,980.75
2019-02-09T16:02:02.325Z,980.75
2019-02-09T16:03:02.523Z,980.83
2019-02-09T16:04:02.729Z,980.87
2019-02-09T16:05:02.781Z,980.85
2019-02-09T16:06:03.002Z,980.91
2019-02-09T16:07:03.191Z,980.81
2019-02-09T16:08:03.333Z,980.87
2019-02-09T16:09:03.429Z,980.82
2019-02-09T16:10:03.664Z,980.83
2019-02-09T16:11:03.913Z,980.78
2019-02-09T16:12:04.013Z,980.91
2019-02-09T16:13:04.111Z,980.95
2019-02-09T16:14:04.357Z,981.02
2019-02-09T16:15:04.465Z,980.92
2019-02-09T16:16:04.621Z,981.10
2019-02-09T16:17:04.775Z,980.93
2019-02-09T16:18:04.987Z,981.05
2019-02-09T16:19:05.106Z,981.08
2019-02-09T16:20:05.263Z,981.04
2019-02-09T16:21:05.387Z,981.05
2019-02-09T16:22:05.524Z,981.07
2019-02-09T16:23:05.760Z,980.96
2019-02-09T16:24:05.905Z,981.06
2019-02-09T16:25:06.108Z,981.03
2019-02-09T16:26:06.284Z,980.97
2019-02-09T16:27:06.456Z,981.11
2019-02-09T16:28:06.596Z,980.97
2019-02-09T16:29:06.758Z,980.87
2019-02-09T16:30:06.941Z,980.85
2019-02-09T16:31:07.015Z,980.91
2019-02-09T16:32:07.246Z,981.03